Time;durP1;ratioP1;P1;durP2;ratioP2;P2;SDS_P1;SDS_P2;PMS_P1;PMS_P2;Temp;Humidity;BMP_temperature;BMP_pressure;BME280_temperature;BME280_humidity;BME280_pressure;Samples;Min_cycle;Max_cycle;Signal;HPM_P1;HPM_P2
2023/04/02 00:01:05;;;;;;;7.88;3.00;;;;;;;;;;5038660;28;20095;-67
2023/04/02 00:03:44;;;;;;;13.65;3.28;;;;;;;;;;5054058;28;20195;-67
2023/04/02 00:06:38;;;;;;;9.15;3.38;;;;;;;;;;5056962;28;20044;-66
2023/04/02 00:09:04;;;;;;;;;;;;;;;;;;5055150;28;20727;-67
2023/04/02 00:11:34;;;;;;;8.00;3.70;;;;;;;;;;5055147;28;19952;-66
2023/04/02 00:14:01;;;;;;;8.77;3.15;;;;;;;;;;5034909;28;20053;-67
2023/04/02 00:16:28;;;;;;;12.52;3.50;;;;;;;;;;5052484;28;20622;-69
2023/04/02 00:18:57;;;;;;;10.52;2.85;;;;;;;;;;5033500;28;20080;-66
2023/04/02 00:21:30;;;;;;;13.80;3.10;;;;;;;;;;5035206;28;20048;-66
2023/04/02 00:23:59;;;;;;;9.57;3.30;;;;;;;;;;5036918;28;20064;-66
2023/04/02 00:26:31;;;;;;;11.32;3.83;;;;;;;;;;5034015;28;20041;-67
2023/04/02 00:28:58;;;;;;;9.88;3.33;;;;;;;;;;5035131;28;20538;-66
2023/04/02 00:31:24;;;;;;;8.77;3.30;;;;;;;;;;5037492;28;20053;-66
2023/04/02 00:33:50;;;;;;;10.80;3.97;;;;;;;;;;5035869;28;20119;-66
2023/04/02 00:36:18;;;;;;;8.10;3.47;;;;;;;;;;5033203;28;20036;-67
2023/04/02 00:38:46;;;;;;;9.35;3.33;;;;;;;;;;5032104;28;20055;-66
2023/04/02 00:41:30;;;;;;;10.10;3.67;;;;;;;;;;5023037;28;20397;-67
2023/04/02 00:43:57;;;;;;;9.07;3.30;;;;;;;;;;5028844;28;20049;-67
2023/04/02 00:46:28;;;;;;;10.18;3.53;;;;;;;;;;5031859;28;20036;-67
2023/04/02 00:49:00;;;;;;;11.27;4.00;;;;;;;;;;5030830;28;20045;-66
2023/04/02 00:51:35;;;;;;;6.45;3.45;;;;;;;;;;5028730;28;20171;-67
2023/04/02 00:54:03;;;;;;;11.30;2.85;;;;;;;;;;5030005;28;20374;-66
2023/04/02 00:56:32;;;;;;;12.73;3.15;;;;;;;;;;5031157;28;20053;-66
2023/04/02 00:58:58;;;;;;;10.80;3.58;;;;;;;;;;5032356;28;20445;-67
2023/04/02 01:01:27;;;;;;;8.07;2.83;;;;;;;;;;5029782;28;20049;-66
2023/04/02 01:04:00;;;;;;;6.32;3.03;;;;;;;;;;5029958;28;20076;-66
2023/04/02 01:06:30;;;;;;;8.45;3.08;;;;;;;;;;5030883;28;20420;-66
2023/04/02 01:09:01;;;;;;;11.20;3.10;;;;;;;;;;5033299;28;20129;-67
2023/04/02 01:11:28;;;;;;;11.88;3.20;;;;;;;;;;5027455;28;20473;-66
2023/04/02 01:14:04;;;;;;;7.88;2.53;;;;;;;;;;5033574;28;20056;-66
2023/04/02 01:16:31;;;;;;;6.43;2.50;;;;;;;;;;5031100;28;20052;-67
2023/04/02 01:19:07;;;;;;;14.25;3.30;;;;;;;;;;5031541;28;20049;-66
2023/04/02 01:21:41;;;;;;;7.55;2.42;;;;;;;;;;5032699;28;20471;-66
2023/04/02 01:24:08;;;;;;;9.13;2.70;;;;;;;;;;5029839;28;20114;-66
2023/04/02 01:26:43;;;;;;;7.15;2.85;;;;;;;;;;5029164;28;21199;-66
2023/04/02 01:29:13;;;;;;;9.93;2.55;;;;;;;;;;5030882;28;20049;-67
2023/04/02 01:31:40;;;;;;;8.23;2.70;;;;;;;;;;5034539;28;20114;-66
2023/04/02 01:34:08;;;;;;;7.90;2.78;;;;;;;;;;5030781;28;20059;-67
2023/04/02 01:36:38;;;;;;;10.88;2.55;;;;;;;;;;5033747;28;20048;-67
2023/04/02 01:39:11;;;;;;;11.60;3.10;;;;;;;;;;5035613;28;20081;-66
2023/04/02 01:41:53;;;;;;;11.43;2.97;;;;;;;;;;5033344;28;20365;-66
2023/04/02 01:44:23;;;;;;;5.68;2.30;;;;;;;;;;5037449;28;20144;-66
2023/04/02 01:46:50;;;;;;;6.85;2.55;;;;;;;;;;5036323;28;20060;-66
2023/04/02 01:49:21;;;;;;;7.97;2.50;;;;;;;;;;5032873;28;20248;-67
2023/04/02 01:51:51;;;;;;;12.65;3.33;;;;;;;;;;5038654;28;20115;-66
2023/04/02 01:54:19;;;;;;;7.35;2.38;;;;;;;;;;5032514;28;20400;-67
2023/04/02 01:56:46;;;;;;;9.85;2.70;;;;;;;;;;5035857;28;20124;-67
2023/04/02 01:59:13;;;;;;;8.80;2.47;;;;;;;;;;5032289;28;20776;-67
2023/04/02 02:01:44;;;;;;;5.72;2.25;;;;;;;;;;5032642;28;20103;-67
2023/04/02 02:04:12;;;;;;;10.63;2.58;;;;;;;;;;5031278;28;20437;-66
2023/04/02 02:06:40;;;;;;;5.68;2.20;;;;;;;;;;5034968;28;20045;-67
2023/04/02 02:09:07;;;;;;;6.60;2.17;;;;;;;;;;5033307;28;20056;-66
2023/04/02 02:11:35;;;;;;;7.75;1.95;;;;;;;;;;5035452;28;20463;-66
2023/04/02 02:14:05;;;;;;;9.75;2.13;;;;;;;;;;5038464;28;20095;-67
2023/04/02 02:16:32;;;;;;;7.38;2.10;;;;;;;;;;5037573;28;20041;-67
2023/04/02 02:19:01;;;;;;;8.45;2.20;;;;;;;;;;5054006;28;20052;-67
2023/04/02 02:21:44;;;;;;;10.20;2.10;;;;;;;;;;5055319;28;20103;-66
2023/04/02 02:24:19;;;;;;;9.05;2.20;;;;;;;;;;5057797;28;20041;-66
2023/04/02 02:26:46;;;;;;;11.85;2.95;;;;;;;;;;5054941;28;20063;-66
2023/04/02 02:29:15;;;;;;;8.30;1.80;;;;;;;;;;5055586;28;20131;-66
2023/04/02 02:31:43;;;;;;;9.02;2.40;;;;;;;;;;5057623;28;20131;-66
2023/04/02 02:34:15;;;;;;;8.95;2.00;;;;;;;;;;5038496;28;20052;-66
2023/04/02 02:36:49;;;;;;;11.52;2.40;;;;;;;;;;5057665;28;20118;-66
2023/04/02 02:39:20;;;;;;;5.60;1.88;;;;;;;;;;5057698;28;20117;-66
2023/04/02 02:41:51;;;;;;;8.32;2.17;;;;;;;;;;5059490;28;20123;-66
2023/04/02 02:44:19;;;;;;;6.85;1.88;;;;;;;;;;5054240;28;20152;-66
2023/04/02 02:46:49;;;;;;;10.68;2.30;;;;;;;;;;5056918;28;20055;-66
2023/04/02 02:49:18;;;;;;;7.35;2.08;;;;;;;;;;5035389;28;20050;-67
2023/04/02 02:51:47;;;;;;;7.50;2.17;;;;;;;;;;5056489;28;20408;-66
2023/04/02 02:54:14;;;;;;;9.13;2.05;;;;;;;;;;5041391;28;20056;-66
2023/04/02 02:56:45;;;;;;;8.65;2.33;;;;;;;;;;5055677;28;20044;-66
2023/04/02 02:59:12;;;;;;;11.82;2.22;;;;;;;;;;5053896;28;20036;-66
2023/04/02 03:01:38;;;;;;;6.05;1.73;;;;;;;;;;5054747;28;20202;-66
2023/04/02 03:04:05;;;;;;;5.85;1.85;;;;;;;;;;5055494;28;20059;-66
2023/04/02 03:06:31;;;;;;;11.73;1.88;;;;;;;;;;5055174;28;20040;-66
2023/04/02 03:09:03;;;;;;;12.32;1.70;;;;;;;;;;5054908;28;20044;-66
2023/04/02 03:11:40;;;;;;;5.80;1.92;;;;;;;;;;5055417;28;20045;-66
2023/04/02 03:14:13;;;;;;;7.43;1.90;;;;;;;;;;5056206;28;20380;-66
2023/04/02 03:16:42;;;;;;;11.35;1.50;;;;;;;;;;5037315;28;20071;-66
2023/04/02 03:19:14;;;;;;;5.38;1.50;;;;;;;;;;5055112;28;20040;-66
2023/04/02 03:21:56;;;;;;;11.63;1.95;;;;;;;;;;5053322;28;20438;-66
2023/04/02 03:24:37;;;;;;;14.38;1.90;;;;;;;;;;5034042;28;20075;-64
2023/04/02 03:27:04;;;;;;;8.98;1.63;;;;;;;;;;5054220;28;20052;-66
2023/04/02 03:29:32;;;;;;;10.85;2.10;;;;;;;;;;5054127;28;20048;-66
2023/04/02 03:32:03;;;;;;;8.60;2.08;;;;;;;;;;5054902;28;20044;-66
2023/04/02 03:34:33;;;;;;;6.38;1.80;;;;;;;;;;5055261;28;20377;-66
2023/04/02 03:37:01;;;;;;;5.65;1.63;;;;;;;;;;5051930;28;20396;-66
2023/04/02 03:39:32;;;;;;;6.47;1.33;;;;;;;;;;5033766;28;20103;-66
2023/04/02 03:42:03;;;;;;;11.15;2.50;;;;;;;;;;5052362;28;20044;-66
2023/04/02 03:44:37;;;;;;;6.20;1.65;;;;;;;;;;5053835;28;20059;-66
2023/04/02 03:47:08;;;;;;;5.30;1.70;;;;;;;;;;5051627;28;20032;-66
2023/04/02 03:49:47;;;;;;;8.52;1.77;;;;;;;;;;5054751;28;20059;-66
2023/04/02 03:52:14;;;;;;;9.52;2.17;;;;;;;;;;5058583;28;20040;-66
2023/04/02 03:54:41;;;;;;;5.30;1.80;;;;;;;;;;5055252;28;20396;-66
2023/04/02 03:57:22;;;;;;;6.05;1.90;;;;;;;;;;5056200;28;20668;-66
2023/04/02 03:59:58;;;;;;;8.25;2.03;;;;;;;;;;5053860;28;20091;-66
2023/04/02 04:02:26;;;;;;;7.63;1.70;;;;;;;;;;5055474;28;20112;-66
2023/04/02 04:04:53;;;;;;;8.90;1.77;;;;;;;;;;5055808;28;20467;-65
2023/04/02 04:07:29;;;;;;;7.45;2.00;;;;;;;;;;5054484;28;20048;-66
2023/04/02 04:09:55;;;;;;;7.45;1.90;;;;;;;;;;5057363;28;20048;-66
2023/04/02 04:12:22;;;;;;;9.20;1.85;;;;;;;;;;5053758;28;20552;-66
2023/04/02 04:14:51;;;;;;;5.95;1.77;;;;;;;;;;5053910;28;20048;-65
2023/04/02 04:17:37;;;;;;;6.72;1.98;;;;;;;;;;5052478;28;20068;-65
2023/04/02 04:20:13;;;;;;;7.00;1.70;;;;;;;;;;5040359;28;20102;-65
2023/04/02 04:22:40;;;;;;;6.60;1.80;;;;;;;;;;5052093;28;20133;-65
2023/04/02 04:25:16;;;;;;;8.52;1.90;;;;;;;;;;5055028;28;20037;-65
2023/04/02 04:27:51;;;;;;;7.63;2.05;;;;;;;;;;5033671;28;20156;-66
2023/04/02 04:30:17;;;;;;;8.07;1.90;;;;;;;;;;5056233;28;20040;-66
2023/04/02 04:32:49;;;;;;;5.63;1.77;;;;;;;;;;5053306;28;20050;-66
2023/04/02 04:35:19;;;;;;;9.02;1.95;;;;;;;;;;5053073;28;20140;-66
2023/04/02 04:37:48;;;;;;;9.90;1.70;;;;;;;;;;5038968;28;20041;-66
2023/04/02 04:40:19;;;;;;;7.55;1.85;;;;;;;;;;5058328;28;20465;-66
2023/04/02 04:42:48;;;;;;;8.77;1.80;;;;;;;;;;5052692;28;20049;-66
2023/04/02 04:45:21;;;;;;;8.63;2.00;;;;;;;;;;5051600;28;20503;-66
2023/04/02 04:47:50;;;;;;;8.85;1.92;;;;;;;;;;5052384;28;20032;-66
2023/04/02 04:50:21;;;;;;;7.30;1.73;;;;;;;;;;5052097;28;20049;-66
2023/04/02 04:52:47;;;;;;;6.22;1.77;;;;;;;;;;5040260;28;20098;-66
2023/04/02 04:55:26;;;;;;;6.60;1.52;;;;;;;;;;5052244;28;20045;-66
2023/04/02 04:57:55;;;;;;;4.05;1.50;;;;;;;;;;5033376;28;20041;-66
2023/04/02 05:00:40;;;;;;;9.23;1.75;;;;;;;;;;5035398;28;20043;-66
2023/04/02 05:03:12;;;;;;;9.32;3.42;;;;;;;;;;5052881;28;20403;-66
2023/04/02 05:05:39;;;;;;;6.53;1.85;;;;;;;;;;5039828;28;20040;-66
2023/04/02 05:08:11;;;;;;;3.83;1.08;;;;;;;;;;5055761;28;20447;-66
2023/04/02 05:10:47;;;;;;;10.77;1.90;;;;;;;;;;5052691;28;20330;-66
2023/04/02 05:13:16;;;;;;;7.82;1.80;;;;;;;;;;5056172;28;20497;-66
2023/04/02 05:15:47;;;;;;;8.18;2.65;;;;;;;;;;5045191;28;20052;-66
2023/04/02 05:18:22;;;;;;;5.70;1.58;;;;;;;;;;5055316;28;20060;-66
2023/04/02 05:20:53;;;;;;;9.00;1.50;;;;;;;;;;5053542;28;20036;-66
2023/04/02 05:23:22;;;;;;;7.15;1.52;;;;;;;;;;5056755;28;20055;-65
2023/04/02 05:26:01;;;;;;;10.70;1.70;;;;;;;;;;5056742;28;20037;-66
2023/04/02 05:28:45;;;;;;;6.18;2.30;;;;;;;;;;5055755;28;20143;-66
2023/04/02 05:31:16;;;;;;;5.88;1.23;;;;;;;;;;5056870;28;20072;-66
2023/04/02 05:33:45;;;;;;;4.03;1.20;;;;;;;;;;5056464;28;20145;-66
2023/04/02 05:36:12;;;;;;;7.75;2.00;;;;;;;;;;5057432;28;20155;-66
2023/04/02 05:38:45;;;;;;;9.23;1.85;;;;;;;;;;5055555;28;20053;-67
2023/04/02 05:41:17;;;;;;;6.75;1.48;;;;;;;;;;5057662;28;20430;-66
2023/04/02 05:43:45;;;;;;;7.57;1.67;;;;;;;;;;5055532;28;20045;-66
2023/04/02 05:46:20;;;;;;;5.95;1.40;;;;;;;;;;5059074;28;20036;-66
2023/04/02 05:48:50;;;;;;;8.85;2.00;;;;;;;;;;5062820;28;20102;-66
2023/04/02 05:51:18;;;;;;;9.55;1.60;;;;;;;;;;5060965;28;20067;-66
2023/04/02 05:53:59;;;;;;;10.45;2.35;;;;;;;;;;5060611;28;20503;-66
2023/04/02 05:56:31;;;;;;;10.05;1.65;;;;;;;;;;5061325;28;20049;-66
2023/04/02 05:59:00;;;;;;;9.48;1.80;;;;;;;;;;5061372;28;20119;-67
2023/04/02 06:01:37;;;;;;;13.05;1.77;;;;;;;;;;5063113;28;20120;-67
2023/04/02 06:04:08;;;;;;;6.85;1.55;;;;;;;;;;5058581;28;20052;-67
2023/04/02 06:06:38;;;;;;;5.65;1.40;;;;;;;;;;5043041;28;20075;-67
2023/04/02 06:09:09;;;;;;;5.32;1.85;;;;;;;;;;5044963;28;20444;-67
2023/04/02 06:11:41;;;;;;;15.45;1.90;;;;;;;;;;5062092;28;20137;-67
2023/04/02 06:14:10;;;;;;;5.63;1.40;;;;;;;;;;5038002;28;20475;-67
2023/04/02 06:16:37;;;;;;;9.05;1.58;;;;;;;;;;5061874;28;20060;-67
2023/04/02 06:19:07;;;;;;;8.88;2.03;;;;;;;;;;5040762;28;20052;-67
2023/04/02 06:21:34;;;;;;;8.48;1.70;;;;;;;;;;5059925;28;20045;-67
2023/04/02 06:24:03;;;;;;;5.97;1.73;;;;;;;;;;5063209;28;20095;-67
2023/04/02 06:26:35;;;;;;;9.63;2.33;;;;;;;;;;5055564;28;20052;-67
2023/04/02 06:29:05;;;;;;;4.13;1.33;;;;;;;;;;5058068;28;20040;-66
2023/04/02 06:31:36;;;;;;;7.20;1.60;;;;;;;;;;5056794;28;20045;-67
2023/04/02 06:34:03;;;;;;;5.38;1.52;;;;;;;;;;5043846;28;20392;-66
2023/04/02 06:36:30;;;;;;;9.93;1.75;;;;;;;;;;5060244;28;20097;-66
2023/04/02 06:38:58;;;;;;;8.38;1.92;;;;;;;;;;5061820;28;20037;-66
2023/04/02 06:41:24;;;;;;;6.68;2.25;;;;;;;;;;5037475;28;20139;-67
2023/04/02 06:43:57;;;;;;;7.43;1.70;;;;;;;;;;5041002;28;20045;-67
2023/04/02 06:46:26;;;;;;;10.65;2.85;;;;;;;;;;5041572;28;20044;-66
2023/04/02 06:48:55;;;;;;;7.68;1.58;;;;;;;;;;5059201;28;20072;-67
2023/04/02 06:51:23;;;;;;;5.43;2.17;;;;;;;;;;5056059;28;20059;-67
2023/04/02 06:53:50;;;;;;;5.78;1.60;;;;;;;;;;5040333;28;20194;-67
2023/04/02 06:56:35;;;;;;;7.05;1.80;;;;;;;;;;5053738;28;20517;-67
2023/04/02 06:59:03;;;;;;;5.15;1.40;;;;;;;;;;5057267;28;20080;-67
2023/04/02 07:01:32;;;;;;;7.45;1.20;;;;;;;;;;5059835;28;20048;-67
2023/04/02 07:03:58;;;;;;;10.48;1.35;;;;;;;;;;5061117;28;20037;-67
2023/04/02 07:06:25;;;;;;;8.68;1.38;;;;;;;;;;5059078;28;20087;-67
2023/04/02 07:08:51;;;;;;;9.70;1.95;;;;;;;;;;5058868;28;20450;-67
2023/04/02 07:11:19;;;;;;;10.18;1.80;;;;;;;;;;5041175;28;20463;-67
2023/04/02 07:13:46;;;;;;;6.13;1.23;;;;;;;;;;5062992;28;20411;-67
2023/04/02 07:16:15;;;;;;;8.65;1.30;;;;;;;;;;5063175;28;20040;-66
2023/04/02 07:18:41;;;;;;;8.73;1.40;;;;;;;;;;5038773;28;20056;-66
2023/04/02 07:21:07;;;;;;;6.10;1.15;;;;;;;;;;5040425;28;20059;-67
2023/04/02 07:23:33;;;;;;;4.95;0.98;;;;;;;;;;5042079;28;20128;-67
2023/04/02 07:26:01;;;;;;;9.20;1.08;;;;;;;;;;5061503;28;20095;-67
2023/04/02 07:28:27;;;;;;;3.20;1.05;;;;;;;;;;5040537;28;20048;-67
2023/04/02 07:30:54;;;;;;;5.47;1.55;;;;;;;;;;5044277;28;20049;-67
2023/04/02 07:33:21;;;;;;;4.65;1.23;;;;;;;;;;5061383;28;20040;-67
2023/04/02 07:35:48;;;;;;;7.30;1.20;;;;;;;;;;5058953;28;20059;-67
2023/04/02 07:38:14;;;;;;;4.97;1.27;;;;;;;;;;5036550;28;20416;-67
2023/04/02 07:40:40;;;;;;;3.78;0.85;;;;;;;;;;5060056;28;20368;-67
2023/04/02 07:43:07;;;;;;;5.85;1.13;;;;;;;;;;5053560;28;20628;-67
2023/04/02 07:45:33;;;;;;;4.68;1.05;;;;;;;;;;5037360;28;20040;-67
2023/04/02 07:48:06;;;;;;;6.50;1.33;;;;;;;;;;5057797;28;20106;-67
2023/04/02 07:50:32;;;;;;;5.45;1.45;;;;;;;;;;5038872;28;20057;-67
2023/04/02 07:52:59;;;;;;;4.30;1.20;;;;;;;;;;5037024;28;20051;-67
2023/04/02 07:55:25;;;;;;;3.33;1.13;;;;;;;;;;5054678;28;20045;-67
2023/04/02 07:57:52;;;;;;;4.55;1.10;;;;;;;;;;5056482;28;20036;-67
2023/04/02 08:00:19;;;;;;;8.48;1.80;;;;;;;;;;5054265;28;20045;-66
2023/04/02 08:02:46;;;;;;;7.15;1.30;;;;;;;;;;5055271;28;20083;-67
2023/04/02 08:05:12;;;;;;;4.45;1.45;;;;;;;;;;5053187;28;20053;-67
2023/04/02 08:07:39;;;;;;;4.70;1.10;;;;;;;;;;5034896;28;20044;-67
2023/04/02 08:10:06;;;;;;;8.13;1.73;;;;;;;;;;5052919;28;20424;-67
2023/04/02 08:12:32;;;;;;;6.95;1.75;;;;;;;;;;5037456;28;20060;-67
2023/04/02 08:14:58;;;;;;;6.50;1.33;;;;;;;;;;5037554;28;20040;-68
2023/04/02 08:17:25;;;;;;;7.55;1.55;;;;;;;;;;5053895;28;20088;-68
2023/04/02 08:19:51;;;;;;;7.15;1.58;;;;;;;;;;5054155;28;20059;-68
2023/04/02 08:22:18;;;;;;;6.35;1.73;;;;;;;;;;5054249;28;20064;-70
2023/04/02 08:24:44;;;;;;;8.45;1.42;;;;;;;;;;5056772;28;20052;-69
2023/04/02 08:27:14;;;;;;;7.32;1.55;;;;;;;;;;5036048;28;20052;-69
2023/04/02 08:29:40;;;;;;;4.15;1.20;;;;;;;;;;5044549;28;20166;-69
2023/04/02 08:32:06;;;;;;;6.15;1.63;;;;;;;;;;5054203;28;20058;-69
2023/04/02 08:34:32;;;;;;;4.68;1.30;;;;;;;;;;5051226;28;20045;-69
2023/04/02 08:36:58;;;;;;;5.32;1.50;;;;;;;;;;5035933;28;20083;-69
2023/04/02 08:39:28;;;;;;;8.05;1.65;;;;;;;;;;5059009;28;20499;-69
2023/04/02 08:42:00;;;;;;;9.43;1.25;;;;;;;;;;5043824;28;20044;-69
2023/04/02 08:44:35;;;;;;;7.82;1.45;;;;;;;;;;5034627;28;20055;-69
2023/04/02 08:47:03;;;;;;;4.32;1.30;;;;;;;;;;5056920;28;20131;-68
2023/04/02 08:49:32;;;;;;;7.35;1.40;;;;;;;;;;5058279;28;20044;-69
2023/04/02 08:51:59;;;;;;;6.22;1.45;;;;;;;;;;5062676;28;20041;-69
2023/04/02 08:54:27;;;;;;;5.82;1.30;;;;;;;;;;5062112;28;20123;-69
2023/04/02 08:56:57;;;;;;;4.78;1.33;;;;;;;;;;5061946;28;20057;-66
2023/04/02 08:59:30;;;;;;;8.50;1.58;;;;;;;;;;5046047;28;20045;-67
2023/04/02 09:02:01;;;;;;;6.72;1.85;;;;;;;;;;5043871;28;20534;-69
2023/04/02 09:04:28;;;;;;;5.32;1.38;;;;;;;;;;5056695;28;20143;-70
2023/04/02 09:06:56;;;;;;;5.78;1.20;;;;;;;;;;5063196;28;20032;-69
2023/04/02 09:09:22;;;;;;;5.25;1.38;;;;;;;;;;5065472;28;20059;-69
2023/04/02 09:11:52;;;;;;;6.40;1.20;;;;;;;;;;5062832;28;20041;-69
2023/04/02 09:14:20;;;;;;;5.03;1.38;;;;;;;;;;5059503;28;20076;-68
2023/04/02 09:16:49;;;;;;;8.35;1.50;;;;;;;;;;5059779;28;20040;-68
2023/04/02 09:19:20;;;;;;;6.88;1.20;;;;;;;;;;5061230;28;20487;-69
2023/04/02 09:21:51;;;;;;;6.63;1.10;;;;;;;;;;5043710;28;20112;-69
2023/04/02 09:24:17;;;;;;;4.55;1.17;;;;;;;;;;5058634;28;20052;-69
2023/04/02 09:26:44;;;;;;;6.43;1.10;;;;;;;;;;5060991;28;20040;-69
2023/04/02 09:29:11;;;;;;;4.75;0.93;;;;;;;;;;5040145;28;20064;-69
2023/04/02 09:31:40;;;;;;;7.47;1.02;;;;;;;;;;5027609;28;20097;-68
2023/04/02 09:34:24;;;;;;;6.50;1.17;;;;;;;;;;5065698;28;20056;-69
2023/04/02 09:36:51;;;;;;;6.90;1.30;;;;;;;;;;5043892;28;20052;-69
2023/04/02 09:39:18;;;;;;;6.80;1.38;;;;;;;;;;5043336;28;20479;-69
2023/04/02 09:41:45;;;;;;;6.32;0.98;;;;;;;;;;5057148;28;20036;-69
2023/04/02 09:44:12;;;;;;;4.20;1.08;;;;;;;;;;5039731;28;20063;-69
2023/04/02 09:46:46;;;;;;;4.30;1.25;;;;;;;;;;5042307;28;20047;-69
2023/04/02 09:49:16;;;;;;;6.55;1.58;;;;;;;;;;5058989;28;20052;-69
2023/04/02 09:51:43;;;;;;;5.38;1.38;;;;;;;;;;5060325;28;20044;-69
2023/04/02 09:54:15;;;;;;;3.90;0.90;;;;;;;;;;5058610;28;20075;-69
2023/04/02 09:56:59;;;;;;;6.03;1.13;;;;;;;;;;5059691;28;20044;-69
2023/04/02 09:59:25;;;;;;;;;;;;;;;;;;5055461;28;20120;-69
2023/04/02 10:01:54;;;;;;;5.95;1.30;;;;;;;;;;5036595;28;19921;-68
2023/04/02 10:04:31;;;;;;;5.93;1.17;;;;;;;;;;5037470;28;20060;-69
2023/04/02 10:06:57;;;;;;;4.80;1.20;;;;;;;;;;5038226;28;20076;-69
2023/04/02 10:09:29;;;;;;;3.08;1.17;;;;;;;;;;5055414;28;20498;-69
2023/04/02 10:11:56;;;;;;;5.57;1.30;;;;;;;;;;5037222;28;20072;-68
2023/04/02 10:14:25;;;;;;;8.25;1.25;;;;;;;;;;5060008;28;20492;-68
2023/04/02 10:16:53;;;;;;;5.57;1.10;;;;;;;;;;5056230;28;20045;-68
2023/04/02 10:19:25;;;;;;;6.68;1.77;;;;;;;;;;5037404;28;20058;-71
2023/04/02 10:21:53;;;;;;;4.37;1.40;;;;;;;;;;5055405;28;20042;-67
2023/04/02 10:24:19;;;;;;;2.85;0.88;;;;;;;;;;5041907;28;20048;-69
2023/04/02 10:26:51;;;;;;;4.13;0.90;;;;;;;;;;5049919;28;20036;-68
2023/04/02 10:29:26;;;;;;;4.03;1.00;;;;;;;;;;5052412;28;20123;-68
2023/04/02 10:31:53;;;;;;;5.70;1.42;;;;;;;;;;5058550;28;20041;-68
2023/04/02 10:34:22;;;;;;;4.90;1.20;;;;;;;;;;5065220;28;20040;-68
2023/04/02 10:36:49;;;;;;;4.07;0.80;;;;;;;;;;5068376;28;20121;-69
2023/04/02 10:39:19;;;;;;;2.63;0.82;;;;;;;;;;5064337;28;20057;-69
2023/04/02 10:41:56;;;;;;;5.43;1.08;;;;;;;;;;5067191;28;20350;-68
2023/04/02 10:44:37;;;;;;;6.28;1.08;;;;;;;;;;5059335;28;20131;-69
2023/04/02 10:47:09;;;;;;;3.42;0.85;;;;;;;;;;5063861;28;20060;-68
2023/04/02 10:49:36;;;;;;;3.58;0.82;;;;;;;;;;5065274;28;20032;-69
2023/04/02 10:52:12;;;;;;;3.30;1.08;;;;;;;;;;5057143;28;20044;-68
2023/04/02 10:54:43;;;;;;;5.97;1.67;;;;;;;;;;5061753;28;20113;-68
2023/04/02 10:57:18;;;;;;;6.07;1.40;;;;;;;;;;5059870;28;20511;-68
2023/04/02 10:59:47;;;;;;;11.55;1.50;;;;;;;;;;5029632;28;20043;-68
2023/04/02 11:02:25;;;;;;;6.35;1.42;;;;;;;;;;5040925;28;20051;-68
2023/04/02 11:04:53;;;;;;;4.95;1.00;;;;;;;;;;5065152;28;20094;-69
2023/04/02 11:07:22;;;;;;;8.90;1.75;;;;;;;;;;5059641;28;20053;-68
2023/04/02 11:09:50;;;;;;;6.55;1.00;;;;;;;;;;5056275;28;20052;-68
2023/04/02 11:12:21;;;;;;;5.07;1.00;;;;;;;;;;5054114;28;20047;-68
2023/04/02 11:14:48;;;;;;;3.63;0.95;;;;;;;;;;5056132;28;20276;-68
2023/04/02 11:17:15;;;;;;;4.10;1.05;;;;;;;;;;5058916;28;20059;-68
2023/04/02 11:19:42;;;;;;;7.88;1.23;;;;;;;;;;5056470;28;20400;-68
2023/04/02 11:22:27;;;;;;;4.40;1.20;;;;;;;;;;5044725;28;20480;-69
2023/04/02 11:24:55;;;;;;;3.30;1.00;;;;;;;;;;5056651;28;20064;-69
2023/04/02 11:27:25;;;;;;;5.15;1.10;;;;;;;;;;5056847;28;20079;-68
2023/04/02 11:29:57;;;;;;;8.48;1.42;;;;;;;;;;5055706;28;20045;-69
2023/04/02 11:32:26;;;;;;;3.13;1.00;;;;;;;;;;5056828;28;20376;-69
2023/04/02 11:34:53;;;;;;;4.28;1.10;;;;;;;;;;5055277;28;20064;-69
2023/04/02 11:37:33;;;;;;;5.30;1.23;;;;;;;;;;5055335;28;20049;-69
2023/04/02 11:40:00;;;;;;;4.03;1.15;;;;;;;;;;5059793;28;20486;-70
2023/04/02 11:42:28;;;;;;;5.53;1.48;;;;;;;;;;5055031;28;20053;-70
2023/04/02 11:44:55;;;;;;;8.25;1.42;;;;;;;;;;5053959;28;20540;-70
2023/04/02 11:47:22;;;;;;;3.17;1.25;;;;;;;;;;5058720;28;20060;-70
2023/04/02 11:49:56;;;;;;;4.30;0.90;;;;;;;;;;5037635;28;20052;-70
2023/04/02 11:52:30;;;;;;;6.80;1.17;;;;;;;;;;5056998;28;20133;-70
2023/04/02 11:54:58;;;;;;;4.22;0.90;;;;;;;;;;5041362;28;20071;-71
2023/04/02 11:57:36;;;;;;;3.88;0.90;;;;;;;;;;5058724;28;20087;-71
2023/04/02 12:00:13;;;;;;;3.60;1.17;;;;;;;;;;5041298;28;20048;-71
2023/04/02 12:02:58;;;;;;;7.43;1.38;;;;;;;;;;5058847;28;20040;-70
2023/04/02 12:05:29;;;;;;;4.93;1.08;;;;;;;;;;5056101;28;20045;-71
2023/04/02 12:07:55;;;;;;;5.57;1.30;;;;;;;;;;5034702;28;20048;-71
2023/04/02 12:10:23;;;;;;;5.88;1.75;;;;;;;;;;5054014;28;20120;-74
2023/04/02 12:12:50;;;;;;;5.22;1.15;;;;;;;;;;5034493;28;20044;-71
2023/04/02 12:15:33;;;;;;;3.97;1.10;;;;;;;;;;5036662;28;20076;-70
2023/04/02 12:18:04;;;;;;;4.40;1.05;;;;;;;;;;5054385;28;20515;-70
2023/04/02 12:20:31;;;;;;;5.75;1.27;;;;;;;;;;5054439;28;20064;-71
2023/04/02 12:22:57;;;;;;;7.40;0.90;;;;;;;;;;5039933;28;20040;-71
2023/04/02 12:25:31;;;;;;;4.55;1.02;;;;;;;;;;5053005;28;20464;-71
2023/04/02 12:28:05;;;;;;;4.38;1.13;;;;;;;;;;5035968;28;20374;-71
2023/04/02 12:30:31;;;;;;;5.20;1.08;;;;;;;;;;5054001;28;20048;-71
2023/04/02 12:33:13;;;;;;;4.50;1.13;;;;;;;;;;5054853;28;20424;-71
2023/04/02 12:35:40;;;;;;;4.72;1.70;;;;;;;;;;5054735;28;20036;-71
2023/04/02 12:38:19;;;;;;;4.03;1.13;;;;;;;;;;5054168;28;20040;-71
2023/04/02 12:40:52;;;;;;;6.18;1.10;;;;;;;;;;5055926;28;20496;-70
2023/04/02 12:43:25;;;;;;;5.65;1.33;;;;;;;;;;5058516;28;20326;-70
2023/04/02 12:45:52;;;;;;;2.65;1.05;;;;;;;;;;5056577;28;20385;-70
2023/04/02 12:48:19;;;;;;;6.75;1.10;;;;;;;;;;5055620;28;20075;-70
2023/04/02 12:50:45;;;;;;;5.22;1.20;;;;;;;;;;5056741;28;20123;-70
2023/04/02 12:53:19;;;;;;;5.78;1.15;;;;;;;;;;5055907;28;20045;-70
2023/04/02 12:55:47;;;;;;;3.92;1.02;;;;;;;;;;5054913;28;20061;-71
2023/04/02 12:58:28;;;;;;;5.20;1.15;;;;;;;;;;5036717;28;20055;-70
2023/04/02 13:01:11;;;;;;;4.80;1.00;;;;;;;;;;5038573;28;20052;-70
2023/04/02 13:03:37;;;;;;;5.85;1.48;;;;;;;;;;5054930;28;20215;-70
2023/04/02 13:06:04;;;;;;;4.65;1.15;;;;;;;;;;5056201;28;20671;-69
2023/04/02 13:08:41;;;;;;;5.38;1.65;;;;;;;;;;5035205;28;20052;-70
2023/04/02 13:11:07;;;;;;;5.68;1.20;;;;;;;;;;5038942;28;20118;-70
2023/04/02 13:13:35;;;;;;;5.95;1.40;;;;;;;;;;5054074;28;20033;-70
2023/04/02 13:16:04;;;;;;;7.55;1.73;;;;;;;;;;5054661;28;20102;-70
2023/04/02 13:18:32;;;;;;;3.75;1.10;;;;;;;;;;5057598;28;20048;-67
2023/04/02 13:21:01;;;;;;;7.50;1.60;;;;;;;;;;5058093;28;20107;-67
2023/04/02 13:23:29;;;;;;;4.65;1.08;;;;;;;;;;5053160;28;20044;-67
2023/04/02 13:25:56;;;;;;;5.88;1.35;;;;;;;;;;5055115;28;20047;-67
2023/04/02 13:28:22;;;;;;;2.65;0.70;;;;;;;;;;5057695;28;20127;-66
2023/04/02 13:30:48;;;;;;;3.05;1.08;;;;;;;;;;5056243;28;20051;-67
2023/04/02 13:33:14;;;;;;;5.47;1.02;;;;;;;;;;5055932;28;20051;-67
2023/04/02 13:35:41;;;;;;;2.03;0.63;;;;;;;;;;5052609;28;20064;-67
2023/04/02 13:38:08;;;;;;;5.22;1.10;;;;;;;;;;5057932;28;20041;-66
2023/04/02 13:40:35;;;;;;;5.93;1.13;;;;;;;;;;5055775;28;20077;-67
2023/04/02 13:43:02;;;;;;;2.70;0.88;;;;;;;;;;5050835;28;20044;-67
2023/04/02 13:45:31;;;;;;;5.30;1.45;;;;;;;;;;5052856;28;20048;-66
2023/04/02 13:47:59;;;;;;;3.97;1.20;;;;;;;;;;5054921;28;20044;-67
2023/04/02 13:50:27;;;;;;;2.55;0.70;;;;;;;;;;5034202;28;20499;-66
2023/04/02 13:52:53;;;;;;;3.10;0.90;;;;;;;;;;5058984;28;20033;-66
2023/04/02 13:55:22;;;;;;;3.42;1.13;;;;;;;;;;5054238;28;20036;-67
2023/04/02 13:57:49;;;;;;;4.93;1.33;;;;;;;;;;5054781;28;20040;-67
2023/04/02 14:00:16;;;;;;;2.70;1.10;;;;;;;;;;5054448;28;20036;-66
2023/04/02 14:02:45;;;;;;;4.65;1.00;;;;;;;;;;5055743;28;20396;-66
2023/04/02 14:05:12;;;;;;;4.32;1.35;;;;;;;;;;5054869;28;20049;-66
2023/04/02 14:07:45;;;;;;;6.10;1.30;;;;;;;;;;5057536;28;20480;-67
2023/04/02 14:10:22;;;;;;;4.78;1.25;;;;;;;;;;5061404;28;20067;-66
2023/04/02 14:12:58;;;;;;;6.00;1.25;;;;;;;;;;5056469;28;20444;-66
2023/04/02 14:15:24;;;;;;;2.28;1.17;;;;;;;;;;5042165;28;20518;-67
2023/04/02 14:17:56;;;;;;;4.53;1.35;;;;;;;;;;5037659;28;20517;-67
2023/04/02 14:20:34;;;;;;;3.28;1.10;;;;;;;;;;5040779;28;20148;-67
2023/04/02 14:23:01;;;;;;;4.38;1.20;;;;;;;;;;5038170;28;20111;-66
2023/04/02 14:25:28;;;;;;;5.75;1.35;;;;;;;;;;5037206;28;20033;-66
2023/04/02 14:28:01;;;;;;;4.57;1.10;;;;;;;;;;5038337;28;20120;-66
2023/04/02 14:30:37;;;;;;;4.57;1.10;;;;;;;;;;5035098;28;20073;-66
2023/04/02 14:33:05;;;;;;;3.78;1.33;;;;;;;;;;5039015;28;20049;-66
2023/04/02 14:35:31;;;;;;;4.60;1.05;;;;;;;;;;5041153;28;20071;-67
2023/04/02 14:38:00;;;;;;;4.47;1.17;;;;;;;;;;5034571;28;20470;-66
2023/04/02 14:40:29;;;;;;;3.55;0.90;;;;;;;;;;5038489;28;20045;-66
2023/04/02 14:43:00;;;;;;;3.90;1.33;;;;;;;;;;5038833;28;20049;-66
2023/04/02 14:45:35;;;;;;;4.22;1.20;;;;;;;;;;5041910;28;20057;-66
2023/04/02 14:48:06;;;;;;;3.35;1.02;;;;;;;;;;5035283;28;20097;-65
2023/04/02 14:50:37;;;;;;;4.90;1.20;;;;;;;;;;5043064;28;20443;-66
2023/04/02 14:53:07;;;;;;;5.05;1.35;;;;;;;;;;5039826;28;20402;-66
2023/04/02 14:55:38;;;;;;;6.13;1.38;;;;;;;;;;5039229;28;20049;-66
2023/04/02 14:58:10;;;;;;;4.95;1.13;;;;;;;;;;5032916;28;20057;-66
2023/04/02 15:00:41;;;;;;;3.85;0.98;;;;;;;;;;5037223;28;20064;-66